createdAt,value
2022-12-18T00:03:32.378Z,58.33
2022-12-18T00:08:35.303Z,66.97
2022-12-18T00:13:38.515Z,54.93
2022-12-18T00:18:43.292Z,44.13
2022-12-18T00:23:46.701Z,61.63
2022-12-18T00:28:50.151Z,76.40
2022-12-18T00:33:55.884Z,72.63
2022-12-18T00:38:59.685Z,62.10
2022-12-18T00:44:02.789Z,54.13
2022-12-18T00:49:07.061Z,57.33
2022-12-18T00:54:09.917Z,60.43
2022-12-18T00:59:14.301Z,78.80
2022-12-18T01:04:18.488Z,66.10
2022-12-18T01:09:22.053Z,69.23
2022-12-18T01:14:24.929Z,67.47
2022-12-18T01:19:30.738Z,58.17
2022-12-18T01:24:33.488Z,70.03
2022-12-18T01:29:36.232Z,57.10
2022-12-18T01:34:40.586Z,63.63
2022-12-18T01:39:43.532Z,78.53
2022-12-18T01:45:02.597Z,68.97
2022-12-18T01:50:10.375Z,66.17
2022-12-18T01:55:13.899Z,71.17
2022-12-18T02:00:20.177Z,56.43
2022-12-18T02:05:30.598Z,64.53
2022-12-18T02:10:36.733Z,51.60
2022-12-18T02:15:42.802Z,61.97
2022-12-18T02:20:50.241Z,49.53
2022-12-18T02:26:03.943Z,66.80
2022-12-18T02:31:08.838Z,67.83
2022-12-18T02:36:13.138Z,61.03
2022-12-18T02:41:18.054Z,61.57
2022-12-18T02:46:31.227Z,67.47
2022-12-18T02:51:42.004Z,58.60
2022-12-18T02:56:51.381Z,69.70
2022-12-18T03:02:00.038Z,59.30
2022-12-18T03:07:05.629Z,67.10
2022-12-18T03:12:25.633Z,65.37
2022-12-18T03:17:33.579Z,63.13
2022-12-18T03:22:37.545Z,63.00
2022-12-18T03:27:46.074Z,49.23
2022-12-18T03:32:59.997Z,59.47
2022-12-18T03:38:03.953Z,56.53
2022-12-18T03:43:13.209Z,46.37
2022-12-18T03:48:20.814Z,49.93
2022-12-18T03:53:30.446Z,39.40
2022-12-18T03:58:37.676Z,44.97
2022-12-18T04:03:51.918Z,61.53
2022-12-18T04:08:56.564Z,58.60
2022-12-18T04:14:07.022Z,50.77
2022-12-18T04:19:10.547Z,52.67
2022-12-18T04:24:17.007Z,49.67
2022-12-18T04:29:31.536Z,49.83
2022-12-18T04:34:35.780Z,51.93
2022-12-18T04:39:38.892Z,58.43
2022-12-18T04:44:48.730Z,54.77
2022-12-18T04:49:51.554Z,42.63
2022-12-18T04:54:54.371Z,44.53
2022-12-18T04:59:58.578Z,53.13
2022-12-18T05:05:01.338Z,53.60
2022-12-18T05:10:10.387Z,40.00
2022-12-18T05:15:14.538Z,47.60
2022-12-18T05:20:17.354Z,39.07
2022-12-18T05:25:20.389Z,43.90
2022-12-18T05:30:24.799Z,49.13
2022-12-18T05:35:27.595Z,32.27
2022-12-18T05:40:30.868Z,39.00
2022-12-18T05:45:39.099Z,43.70
2022-12-18T05:50:43.064Z,37.00
2022-12-18T05:55:46.469Z,41.50
2022-12-18T06:00:50.717Z,42.73
2022-12-18T06:05:53.515Z,46.70
2022-12-18T06:10:56.491Z,42.43
2022-12-18T06:16:04.207Z,47.57
2022-12-18T06:21:07.371Z,56.97
2022-12-18T06:26:12.332Z,46.37
2022-12-18T06:31:16.547Z,50.13
2022-12-18T06:36:19.542Z,42.27
2022-12-18T06:41:23.357Z,35.53
2022-12-18T06:46:27.538Z,31.03
2022-12-18T06:51:30.273Z,36.43
2022-12-18T06:56:33.057Z,43.50
2022-12-18T07:01:37.550Z,37.77
2022-12-18T07:06:40.464Z,28.93
2022-12-18T07:11:43.288Z,36.80
2022-12-18T07:16:47.597Z,30.27
2022-12-18T07:21:51.675Z,30.43
2022-12-18T07:26:54.756Z,31.37
2022-12-18T07:31:59.230Z,20.10
2022-12-18T07:37:02.144Z,22.60
2022-12-18T07:42:23.060Z,19.80
2022-12-18T07:47:27.435Z,19.40
2022-12-18T07:52:31.083Z,26.63
2022-12-18T07:57:50.031Z,24.67
2022-12-18T08:02:55.669Z,15.90
2022-12-18T08:07:58.507Z,26.80
2022-12-18T08:13:04.906Z,19.93
2022-12-18T08:18:14.053Z,24.83
2022-12-18T08:23:17.297Z,18.23
2022-12-18T08:28:20.295Z,21.37
2022-12-18T08:33:24.515Z,24.30
2022-12-18T08:38:27.325Z,24.13
2022-12-18T08:43:47.627Z,24.73
2022-12-18T08:48:52.376Z,23.50
2022-12-18T08:53:55.241Z,25.70
2022-12-18T08:58:58.281Z,20.63
2022-12-18T09:04:02.440Z,21.73
2022-12-18T09:09:06.178Z,21.90
2022-12-18T09:14:09.151Z,23.63
2022-12-18T09:19:13.333Z,20.37
2022-12-18T09:24:16.277Z,26.43
2022-12-18T09:29:19.219Z,19.67
2022-12-18T09:34:23.667Z,25.23
2022-12-18T09:39:26.456Z,21.60
2022-12-18T09:44:31.254Z,20.87
2022-12-18T09:49:37.371Z,20.67
2022-12-18T09:54:41.635Z,22.07
2022-12-18T09:59:46.963Z,20.17
2022-12-18T10:05:02.987Z,25.47
2022-12-18T10:10:09.427Z,20.47
2022-12-18T10:15:17.517Z,23.50
2022-12-18T10:20:27.964Z,24.70
2022-12-18T10:25:34.194Z,26.67
2022-12-18T10:30:37.075Z,29.27
2022-12-18T10:35:43.371Z,25.50
2022-12-18T10:40:54.260Z,17.43
2022-12-18T10:46:03.844Z,20.43
2022-12-18T10:51:12.694Z,17.17
2022-12-18T10:56:22.224Z,17.43
2022-12-18T11:01:25.202Z,21.93
2022-12-18T11:06:29.547Z,14.87
2022-12-18T11:11:33.770Z,23.43
2022-12-18T11:16:38.832Z,19.47
2022-12-18T11:21:44.006Z,20.10
2022-12-18T11:26:46.829Z,17.70
2022-12-18T11:31:49.704Z,14.77
2022-12-18T11:36:54.689Z,20.60
2022-12-18T11:42:13.478Z,12.20
2022-12-18T11:47:24.074Z,15.70
2022-12-18T11:52:31.359Z,16.90
2022-12-18T11:57:39.711Z,20.63
2022-12-18T12:03:06.245Z,13.10
2022-12-18T12:08:17.558Z,18.07
2022-12-18T12:13:29.899Z,16.17
2022-12-18T12:18:43.508Z,13.23
2022-12-18T12:23:56.223Z,12.23
2022-12-18T12:29:10.438Z,15.67
2022-12-18T12:34:19.567Z,14.07
2022-12-18T12:39:26.487Z,14.03
2022-12-18T12:44:31.910Z,14.67
2022-12-18T12:49:40.622Z,14.47
2022-12-18T12:54:45.984Z,12.03
2022-12-18T12:59:53.404Z,17.93
2022-12-18T13:04:59.853Z,15.23
2022-12-18T13:10:35.618Z,12.10
2022-12-18T13:15:44.216Z,17.27
2022-12-18T13:20:54.456Z,10.70
2022-12-18T13:26:01.676Z,16.17
2022-12-18T13:31:05.118Z,12.20
2022-12-18T13:36:15.538Z,13.00
2022-12-18T13:41:28.116Z,20.40
2022-12-18T13:46:32.857Z,15.77
2022-12-18T13:51:36.576Z,13.80
2022-12-18T13:56:46.389Z,10.53
2022-12-18T14:01:53.747Z,13.27
2022-12-18T14:07:00.127Z,10.93
2022-12-18T14:12:37.113Z,11.67
2022-12-18T14:17:39.919Z,15.37
2022-12-18T14:22:45.388Z,16.43
2022-12-18T14:27:52.493Z,11.37
2022-12-18T14:33:11.182Z,14.90
2022-12-18T14:38:26.318Z,13.93
2022-12-18T14:43:31.703Z,14.20
2022-12-18T14:48:39.852Z,12.63
2022-12-18T14:53:50.560Z,15.13
2022-12-18T14:58:59.506Z,14.20
2022-12-18T15:04:04.024Z,11.07
2022-12-18T15:09:23.379Z,15.67
2022-12-18T15:14:34.006Z,10.50
2022-12-18T15:19:40.919Z,25.17
2022-12-18T15:24:44.142Z,14.03
2022-12-18T15:30:02.177Z,13.83
2022-12-18T15:35:09.895Z,16.30
2022-12-18T15:40:15.323Z,17.27
2022-12-18T15:45:21.791Z,14.10
2022-12-18T15:50:27.316Z,13.13
2022-12-18T15:55:48.945Z,15.80
2022-12-18T16:00:53.341Z,21.23
2022-12-18T16:05:56.240Z,19.77
2022-12-18T16:11:00.159Z,14.73
2022-12-18T16:16:04.413Z,17.17
2022-12-18T16:21:07.564Z,15.40
2022-12-18T16:26:10.364Z,13.13
2022-12-18T16:31:14.686Z,17.13
2022-12-18T16:36:17.617Z,16.63
2022-12-18T16:41:33.055Z,11.53
2022-12-18T16:46:37.376Z,12.20
2022-12-18T16:51:40.317Z,23.10
2022-12-18T16:56:43.156Z,10.63
2022-12-18T17:01:49.997Z,15.97
2022-12-18T17:06:54.202Z,22.47
2022-12-18T17:11:57.122Z,20.80
2022-12-18T17:17:20.858Z,17.57
2022-12-18T17:22:24.449Z,19.17
2022-12-18T17:27:27.388Z,18.43
2022-12-18T17:32:31.557Z,18.50
2022-12-18T17:37:34.420Z,17.37
2022-12-18T17:42:37.501Z,16.53
2022-12-18T17:47:42.253Z,17.30
2022-12-18T17:52:45.103Z,18.33
2022-12-18T17:57:47.924Z,15.17
2022-12-18T18:02:52.527Z,18.40
2022-12-18T18:07:55.560Z,16.97
2022-12-18T18:13:16.117Z,17.20
2022-12-18T18:18:20.299Z,18.43
2022-12-18T18:23:25.022Z,18.33
2022-12-18T18:28:27.896Z,16.40
2022-12-18T18:33:32.386Z,13.57
2022-12-18T18:38:35.195Z,14.37
2022-12-18T18:43:38.243Z,18.10
2022-12-18T18:48:43.013Z,17.47
2022-12-18T18:53:48.268Z,20.63
2022-12-18T18:58:51.779Z,22.33
2022-12-18T19:03:56.220Z,16.03
2022-12-18T19:08:59.548Z,19.97
2022-12-18T19:14:04.581Z,18.30
2022-12-18T19:19:09.774Z,17.10
2022-12-18T19:24:12.818Z,19.23
2022-12-18T19:29:15.959Z,16.73
2022-12-18T19:34:20.140Z,20.33
2022-12-18T19:39:23.033Z,18.70
2022-12-18T19:44:26.841Z,20.23
2022-12-18T19:49:32.649Z,15.47
2022-12-18T19:54:35.546Z,15.13
2022-12-18T19:59:38.986Z,19.27
2022-12-18T20:04:43.805Z,17.40
2022-12-18T20:09:46.563Z,22.07
2022-12-18T20:14:49.723Z,20.93
2022-12-18T20:19:53.891Z,21.50
2022-12-18T20:24:57.002Z,18.53
2022-12-18T20:29:59.932Z,19.80
2022-12-18T20:35:04.390Z,16.30
2022-12-18T20:40:10.517Z,17.77
2022-12-18T20:45:13.415Z,31.20
2022-12-18T20:50:17.790Z,22.40
2022-12-18T20:55:20.650Z,26.77
2022-12-18T21:00:23.506Z,18.07
2022-12-18T21:05:27.636Z,24.60
2022-12-18T21:10:30.537Z,21.67
2022-12-18T21:15:33.791Z,26.20
2022-12-18T21:20:37.977Z,28.47
2022-12-18T21:25:40.929Z,19.53
2022-12-18T21:30:44.042Z,26.13
2022-12-18T21:35:48.317Z,27.43
2022-12-18T21:40:51.143Z,24.43
2022-12-18T21:45:54.138Z,23.53
2022-12-18T21:50:59.896Z,22.77
2022-12-18T21:56:02.776Z,28.90
2022-12-18T22:01:05.621Z,22.73
2022-12-18T22:06:10.037Z,17.37
2022-12-18T22:11:13.849Z,19.67
2022-12-18T22:16:17.431Z,31.57
2022-12-18T22:21:29.237Z,30.70
2022-12-18T22:26:39.468Z,27.70
2022-12-18T22:31:43.118Z,29.17
2022-12-18T22:36:48.935Z,32.20
2022-12-18T22:41:51.798Z,26.40
2022-12-18T22:46:56.189Z,28.27
2022-12-18T22:52:12.861Z,30.43
2022-12-18T22:57:17.749Z,29.97
2022-12-18T23:02:21.000Z,30.17
2022-12-18T23:07:25.270Z,35.90
2022-12-18T23:12:28.140Z,37.77
2022-12-18T23:17:33.069Z,30.67
2022-12-18T23:22:37.363Z,30.43
2022-12-18T23:27:42.918Z,29.07
2022-12-18T23:32:45.748Z,29.60
2022-12-18T23:37:58.693Z,33.80
2022-12-18T23:43:02.401Z,39.10
2022-12-18T23:48:05.446Z,31.60
2022-12-18T23:53:10.401Z,39.53
2022-12-18T23:58:18.376Z,31.00
